aviador You're here:

KLDJ Decoded Metar

in _UNIDENTIFIED
Report Time2017-04-30 14:55:00
UTC Time2017-04-30 14:54:55
Flight Rules vfr VFR
Wind090° at 05 kt
W.Decomp.*RWY 09: 4.9 kt HW 1.1 kt RCW
W.Rank090° ranks 28
Current wind is below 090° avg. (7.5)
Visibility9999 m
Phenomena:N/A
Clouds:Overcast 043 Hf
Expected CloudBase > 5,600 ft AGL from Temp-Dew spread
Ceiling4,300 ft
Temp17°C (ISA +2)
Dew Point03°C (39% RH)
AAT13.7°C
QNH1024 hPa
Density Alt0 ft
Elevation23 ft
Report Wrong Elevation
Raw Report
METAR KLDJ 301455Z AUTO 09005KT 10SM OVC043 17/03 A3024 RMK AO2 T01700028=

Extra information for KLDJ:More info

Metar Taf Metar & Taf Last 4 Metars F.Rules Stats Wind Profile Meteogram Temp Stats Metar ALERT Operation Metar Decoded Social comments